Contact Us:
Email: info@sawbill.com
Phone: (218)663-7150
Fax: (218)663-7980
Mail: 4620 Sawbill Trail
Box 2129
Tofte, MN 55615


Powered by
Movable Type 3.15
 
Sawbill Weather History Archives: December 2003
Current Sawbill Weather History | « November 2003 | January 2004 »


Date

High
Temperature

Low
Temperature

Barometric
Pressure

Relative
Humidity 7AM

9 AM
Temperature

Moisture

Snow

12/31/03 21 1 30.12 75% 14 0  
12/30/03 28 7 29.78 74% 19 .23" 4"
12/29/03 33 14 29.87 73% 23 .10" 1"
12/28/03 38 30 29.71 81% 31 Trace Trace
12/27/03 37 35 29.52 88% 36 Trace Trace
12/26/03 37 13 29.90 78% 35 0  
12/25/03 37 1 30.13 65% 12 0  
12/24/03 30 -5 30.03 63% 1 0  
12/23/03 21 -5 30.08 58% -5 0  
12/22/03 32 9 29.98 67% 10 .07" 1"
12/21/03 38 18 29.74 82% 26 0  
12/20/03 30 14 29.57 77% 18 0  
12/19/03 19 5 29.91 64% 19 0  
12/18/03 28 5 30.01 66% 5 Trace Trace
12/17/03 25 0 29.77 73% 14 0  
12/16/03 28 10 29.84 69% 10 .07" 1"
12/15/03 28 25 29.53 81% 26 .52" 5"
12/14/03 26 23 29.67 84% 25 0  
12/13/03 25 14 29.78 81% 24 Trace Trace
12/12/03 14 -6 30.06 73% 14 0  
12/11/03 14 -6 30.10 54% -5 0  
12/10/03 14 -2 29.89 62% -2 0  
12/09/03 24 10 29.92 68% 10 0  
12/08/03 36 24 30.04 75% 24 0  
12/07/03 32 28 29.72 82% 32 0  
12/06/03 28 4 29.91 82% 28 0  
12/05/03 32 5 30.32 62% 5 0  
12/04/03 36 27 30.23 77% 29 0  
12/03/03 39 8 30.20 73% 28 0  
12/02/03 33 7 30.37 60% 8 0  
 


Home I Trip Planning I Rentals and Outfitting I Reservations I Campgrounds I Sawbill Store I Sawbill News I Contact

© 1997 - 2017, Sawbill Canoe Outfitters, Inc. I Privacy Policy